createdAt,value
2023-09-11T00:02:35.442Z,19.62
2023-09-11T00:06:04.921Z,19.75
2023-09-11T00:09:29.356Z,20.50
2023-09-11T00:12:53.387Z,19.78
2023-09-11T00:16:18.325Z,19.70
2023-09-11T00:19:42.506Z,20.07
2023-09-11T00:23:07.304Z,20.08
2023-09-11T00:26:33.564Z,20.32
2023-09-11T00:29:58.318Z,21.31
2023-09-11T00:33:22.404Z,20.51
2023-09-11T00:36:46.354Z,21.63
2023-09-11T00:40:10.529Z,21.16
2023-09-11T00:43:34.367Z,20.96
2023-09-11T00:46:58.401Z,20.29
2023-09-11T00:50:26.400Z,19.55
2023-09-11T00:53:52.425Z,20.35
2023-09-11T00:57:16.441Z,20.91
2023-09-11T01:00:40.385Z,20.65
2023-09-11T01:04:04.396Z,20.21
2023-09-11T01:07:29.390Z,20.41
2023-09-11T01:10:53.416Z,20.15
2023-09-11T01:14:18.427Z,20.60
2023-09-11T01:17:51.450Z,20.97
2023-09-11T01:21:26.419Z,20.88
2023-09-11T01:24:59.406Z,20.34
2023-09-11T01:28:47.413Z,19.88
2023-09-11T01:32:11.473Z,19.87
2023-09-11T01:35:35.425Z,20.35
2023-09-11T01:38:59.454Z,19.64
2023-09-11T01:42:26.412Z,19.78
2023-09-11T01:45:51.432Z,19.47
2023-09-11T01:49:17.427Z,19.47
2023-09-11T01:52:41.394Z,20.12
2023-09-11T01:56:06.496Z,20.43
2023-09-11T01:59:30.412Z,20.21
2023-09-11T02:03:00.611Z,20.25
2023-09-11T02:06:25.382Z,19.95
2023-09-11T02:09:50.425Z,19.50
2023-09-11T02:13:14.379Z,19.88
2023-09-11T02:16:38.426Z,19.41
2023-09-11T02:20:02.416Z,19.88
2023-09-11T02:23:20.355Z,19.51
2023-09-11T02:26:37.459Z,19.29
2023-09-11T02:30:01.431Z,19.03
2023-09-11T02:33:25.450Z,18.93
2023-09-11T02:36:50.396Z,19.35
2023-09-11T02:40:15.474Z,19.22
2023-09-11T02:43:39.417Z,19.14
2023-09-11T02:47:03.526Z,18.92
2023-09-11T02:50:28.413Z,18.62
2023-09-11T02:53:52.484Z,18.40
2023-09-11T02:57:16.400Z,18.37
2023-09-11T03:00:41.527Z,18.57
2023-09-11T03:04:05.404Z,18.44
2023-09-11T03:07:30.612Z,18.07
2023-09-11T03:10:55.420Z,18.24
2023-09-11T03:14:22.461Z,18.40
2023-09-11T03:17:47.481Z,18.15
2023-09-11T03:21:12.445Z,17.99
2023-09-11T03:24:37.400Z,17.84
2023-09-11T03:28:02.465Z,17.90
2023-09-11T03:31:27.400Z,18.13
2023-09-11T03:34:52.444Z,18.12
2023-09-11T03:38:16.391Z,18.23
2023-09-11T03:41:41.555Z,18.01
2023-09-11T03:45:06.405Z,17.96
2023-09-11T03:48:31.562Z,18.10
2023-09-11T03:51:57.435Z,18.08
2023-09-11T03:55:22.557Z,17.74
2023-09-11T03:58:47.434Z,17.72
2023-09-11T04:02:11.484Z,17.76
2023-09-11T04:05:35.460Z,17.68
2023-09-11T04:08:59.549Z,17.65
2023-09-11T04:12:26.430Z,17.78
2023-09-11T04:15:50.623Z,17.60
2023-09-11T04:19:16.439Z,17.73
2023-09-11T04:22:40.479Z,17.63
2023-09-11T04:26:10.461Z,17.48
2023-09-11T04:29:35.537Z,17.64
2023-09-11T04:33:00.545Z,17.52
2023-09-11T04:36:24.460Z,17.32
2023-09-11T04:39:49.467Z,17.27
2023-09-11T04:43:13.477Z,17.29
2023-09-11T04:46:37.531Z,16.83
2023-09-11T04:50:02.547Z,16.85
2023-09-11T04:53:27.486Z,16.50
2023-09-11T04:56:52.533Z,16.40
2023-09-11T05:00:19.705Z,16.47
2023-09-11T05:03:44.618Z,16.43
2023-09-11T05:07:08.494Z,16.29
2023-09-11T05:10:34.490Z,16.03
2023-09-11T05:13:59.492Z,15.83
2023-09-11T05:17:23.479Z,15.96
2023-09-11T05:20:49.552Z,15.72
2023-09-11T05:24:15.467Z,15.63
2023-09-11T05:27:39.499Z,15.74
2023-09-11T05:31:05.462Z,15.49
2023-09-11T05:34:29.501Z,15.37
2023-09-11T05:37:53.524Z,15.54
2023-09-11T05:41:17.508Z,15.48
2023-09-11T05:44:41.588Z,15.39
2023-09-11T05:48:07.536Z,15.46
2023-09-11T05:51:31.477Z,15.25
2023-09-11T05:54:55.518Z,15.25
2023-09-11T05:58:19.492Z,14.92
2023-09-11T06:01:43.548Z,14.96
2023-09-11T06:05:08.495Z,14.77
2023-09-11T06:08:33.527Z,14.74
2023-09-11T06:11:57.528Z,14.57
2023-09-11T06:15:22.560Z,14.46
2023-09-11T06:18:41.695Z,14.64
2023-09-11T06:22:16.575Z,14.60
2023-09-11T06:25:40.500Z,14.49
2023-09-11T06:29:05.547Z,14.43
2023-09-11T06:32:29.586Z,14.02
2023-09-11T06:35:53.561Z,13.88
2023-09-11T06:39:18.525Z,13.64
2023-09-11T06:42:42.558Z,13.53
2023-09-11T06:46:10.541Z,13.52
2023-09-11T06:49:34.530Z,13.31
2023-09-11T06:52:59.490Z,13.33
2023-09-11T06:56:24.640Z,13.31
2023-09-11T06:59:49.538Z,13.50
2023-09-11T07:03:15.100Z,13.50
2023-09-11T07:06:41.520Z,13.26
2023-09-11T07:10:06.556Z,13.31
2023-09-11T07:13:30.583Z,13.34
2023-09-11T07:16:54.553Z,13.19
2023-09-11T07:20:22.554Z,13.37
2023-09-11T07:23:46.597Z,13.59
2023-09-11T07:27:11.545Z,13.79
2023-09-11T07:30:36.559Z,13.65
2023-09-11T07:34:01.574Z,13.72
2023-09-11T07:37:27.553Z,13.72
2023-09-11T07:40:52.578Z,13.63
2023-09-11T07:44:16.535Z,13.87
2023-09-11T07:47:40.634Z,13.85
2023-09-11T07:51:04.559Z,13.62
2023-09-11T07:54:30.625Z,13.79
2023-09-11T07:57:55.537Z,13.86
2023-09-11T08:01:19.627Z,13.77
2023-09-11T08:04:45.674Z,13.88
2023-09-11T08:08:11.629Z,13.77
2023-09-11T08:11:37.601Z,13.76
2023-09-11T08:15:01.637Z,13.95
2023-09-11T08:18:25.645Z,13.76
2023-09-11T08:21:49.552Z,13.72
2023-09-11T08:25:14.585Z,13.75
2023-09-11T08:28:39.040Z,13.60
2023-09-11T08:32:03.627Z,13.66
2023-09-11T08:35:27.566Z,13.75
2023-09-11T08:38:53.571Z,13.94
2023-09-11T08:42:17.769Z,13.92
2023-09-11T08:45:41.633Z,13.96
2023-09-11T08:49:09.571Z,13.84
2023-09-11T08:52:33.545Z,13.86
2023-09-11T08:55:57.601Z,13.85
2023-09-11T08:59:22.568Z,13.94
2023-09-11T09:02:48.891Z,13.60
2023-09-11T09:06:14.629Z,13.75
2023-09-11T09:09:38.589Z,13.73
2023-09-11T09:13:02.643Z,13.65
2023-09-11T09:16:27.599Z,13.70
2023-09-11T09:19:52.623Z,13.64
2023-09-11T09:23:17.582Z,13.69
2023-09-11T09:26:42.618Z,13.53
2023-09-11T09:30:07.586Z,13.59
2023-09-11T09:33:31.736Z,13.57
2023-09-11T09:37:05.766Z,13.47
2023-09-11T09:40:29.582Z,13.57
2023-09-11T09:43:54.686Z,13.51
2023-09-11T09:47:30.611Z,13.62
2023-09-11T09:51:06.643Z,13.57
2023-09-11T09:54:30.679Z,13.56
2023-09-11T09:57:54.677Z,13.70
2023-09-11T10:01:25.761Z,13.59
2023-09-11T10:04:43.258Z,13.63
2023-09-11T10:08:02.609Z,13.45
2023-09-11T10:11:40.292Z,13.37
2023-09-11T10:14:58.671Z,13.29
2023-09-11T10:18:24.696Z,13.37
2023-09-11T10:21:48.624Z,13.38
2023-09-11T10:25:12.623Z,13.15
2023-09-11T10:28:54.624Z,13.17
2023-09-11T10:32:30.599Z,13.06
2023-09-11T10:35:56.679Z,12.99
2023-09-11T10:39:22.641Z,13.05
2023-09-11T10:42:46.627Z,13.00
2023-09-11T10:46:10.676Z,12.92
2023-09-11T10:49:37.629Z,12.94
2023-09-11T10:53:02.614Z,12.79
2023-09-11T10:56:26.654Z,12.82
2023-09-11T10:59:51.659Z,12.82
2023-09-11T11:03:16.761Z,12.67
2023-09-11T11:06:42.600Z,12.61
2023-09-11T11:10:08.846Z,12.69
2023-09-11T11:13:32.647Z,12.60
2023-09-11T11:17:22.620Z,12.72
2023-09-11T11:20:46.660Z,12.77
2023-09-11T11:24:15.624Z,12.84
2023-09-11T11:27:39.667Z,12.53
2023-09-11T11:31:08.678Z,12.57
2023-09-11T11:34:27.808Z,12.49
2023-09-11T11:37:52.629Z,12.39
2023-09-11T11:41:16.660Z,12.38
2023-09-11T11:44:42.640Z,12.34
2023-09-11T11:48:06.808Z,12.32
2023-09-11T11:51:30.637Z,12.26
2023-09-11T11:54:54.820Z,12.18
2023-09-11T11:58:21.638Z,12.16
2023-09-11T12:01:51.652Z,12.04
2023-09-11T12:05:16.764Z,12.02
2023-09-11T12:08:41.142Z,12.02
2023-09-11T12:12:06.663Z,11.95
2023-09-11T12:15:31.580Z,11.99
2023-09-11T12:18:57.705Z,12.08
2023-09-11T12:22:21.654Z,12.04
2023-09-11T12:25:46.671Z,12.00
2023-09-11T12:29:12.646Z,11.94
2023-09-11T12:32:36.700Z,12.05
2023-09-11T12:36:01.742Z,11.92
2023-09-11T12:39:25.725Z,11.91
2023-09-11T12:42:49.646Z,11.86
2023-09-11T12:46:14.854Z,11.87
2023-09-11T12:49:39.658Z,11.88
2023-09-11T12:53:04.856Z,11.84
2023-09-11T12:56:29.650Z,11.73
2023-09-11T12:59:53.810Z,11.68
2023-09-11T13:03:18.736Z,11.58
2023-09-11T13:06:44.701Z,11.69
2023-09-11T13:10:08.689Z,11.58
2023-09-11T13:13:43.808Z,11.34
2023-09-11T13:17:07.693Z,11.29
2023-09-11T13:20:31.660Z,11.26
2023-09-11T13:23:56.686Z,11.37
2023-09-11T13:27:22.702Z,11.42
2023-09-11T13:30:48.721Z,11.38
2023-09-11T13:34:12.655Z,11.28
2023-09-11T13:37:37.811Z,11.34
2023-09-11T13:41:01.665Z,11.31
2023-09-11T13:44:26.718Z,11.35
2023-09-11T13:47:51.708Z,11.48
2023-09-11T13:51:16.775Z,11.58
2023-09-11T13:54:40.674Z,11.48
2023-09-11T13:58:04.728Z,11.45
2023-09-11T14:01:22.386Z,11.42
2023-09-11T14:04:39.916Z,11.35
2023-09-11T14:08:03.671Z,11.27
2023-09-11T14:11:27.838Z,11.28
2023-09-11T14:14:51.708Z,11.08
2023-09-11T14:18:15.796Z,11.10
2023-09-11T14:21:43.701Z,10.86
2023-09-11T14:25:08.736Z,10.94
2023-09-11T14:28:32.696Z,10.87
2023-09-11T14:31:56.741Z,10.83
2023-09-11T14:35:24.558Z,10.82
2023-09-11T14:38:48.977Z,10.66
2023-09-11T14:42:13.705Z,10.63
2023-09-11T14:45:38.758Z,10.75
2023-09-11T14:49:10.745Z,10.94
2023-09-11T14:52:35.720Z,11.08
2023-09-11T14:55:59.706Z,11.12
2023-09-11T14:59:23.713Z,11.12
2023-09-11T15:02:47.891Z,11.18
2023-09-11T15:06:12.697Z,11.16
2023-09-11T15:09:36.758Z,10.97
2023-09-11T15:13:01.792Z,10.90
2023-09-11T15:16:26.771Z,10.84
2023-09-11T15:19:50.696Z,10.83
2023-09-11T15:23:16.846Z,10.90
2023-09-11T15:26:41.717Z,10.70
2023-09-11T15:30:06.992Z,10.75
2023-09-11T15:33:32.833Z,10.69
2023-09-11T15:36:56.737Z,10.76
2023-09-11T15:40:22.692Z,10.74
2023-09-11T15:43:55.904Z,10.70
2023-09-11T15:47:20.703Z,10.70
2023-09-11T15:50:44.893Z,10.75
2023-09-11T15:54:08.728Z,10.80
2023-09-11T15:57:33.824Z,10.58
2023-09-11T16:00:51.383Z,10.46
2023-09-11T16:04:15.921Z,10.59
2023-09-11T16:07:39.769Z,10.47
2023-09-11T16:11:03.732Z,10.42
2023-09-11T16:14:27.863Z,10.70
2023-09-11T16:17:52.823Z,10.65
2023-09-11T16:21:33.130Z,10.53
2023-09-11T16:25:01.779Z,10.52
2023-09-11T16:28:28.897Z,10.45
2023-09-11T16:31:53.723Z,10.36
2023-09-11T16:35:20.776Z,10.36
2023-09-11T16:38:44.730Z,10.46
2023-09-11T16:42:09.794Z,10.55
2023-09-11T16:45:34.741Z,10.40
2023-09-11T16:48:58.950Z,10.15
2023-09-11T16:52:23.746Z,10.21
2023-09-11T16:55:48.765Z,10.23
2023-09-11T16:59:14.252Z,10.13
2023-09-11T17:02:38.805Z,10.12
2023-09-11T17:06:02.761Z,10.10
2023-09-11T17:09:27.912Z,10.13
2023-09-11T17:12:51.760Z,10.18
2023-09-11T17:16:15.802Z,10.20
2023-09-11T17:19:39.908Z,10.13
2023-09-11T17:23:03.742Z,10.19
2023-09-11T17:26:27.794Z,10.23
2023-09-11T17:29:52.796Z,10.14
2023-09-11T17:33:16.904Z,10.39
2023-09-11T17:36:41.743Z,10.32
2023-09-11T17:40:06.799Z,10.26
2023-09-11T17:43:31.820Z,10.19
2023-09-11T17:46:56.792Z,10.27
2023-09-11T17:50:20.802Z,10.18
2023-09-11T17:53:45.811Z,10.21
2023-09-11T17:57:10.917Z,10.14
2023-09-11T18:00:36.865Z,10.19
2023-09-11T18:04:02.905Z,10.25
2023-09-11T18:07:27.767Z,10.24
2023-09-11T18:10:51.905Z,10.17
2023-09-11T18:14:16.793Z,10.06
2023-09-11T18:17:42.590Z,10.02
2023-09-11T18:21:08.785Z,9.98
2023-09-11T18:24:32.813Z,9.99
2023-09-11T18:27:56.804Z,10.01
2023-09-11T18:31:21.947Z,9.89
2023-09-11T18:34:46.796Z,9.80
2023-09-11T18:38:10.772Z,9.82
2023-09-11T18:41:35.809Z,10.04
2023-09-11T18:44:59.868Z,9.95
2023-09-11T18:48:23.991Z,9.81
2023-09-11T18:51:49.835Z,9.99
2023-09-11T18:55:14.889Z,10.05
2023-09-11T18:58:40.298Z,10.16
2023-09-11T19:02:10.819Z,10.11
2023-09-11T19:05:28.453Z,10.15
2023-09-11T19:08:45.807Z,9.99
2023-09-11T19:12:09.855Z,10.04
2023-09-11T19:15:34.803Z,10.11
2023-09-11T19:18:59.864Z,11.62
2023-09-11T19:22:25.012Z,11.95
2023-09-11T19:25:49.811Z,12.65
2023-09-11T19:29:13.808Z,12.48
2023-09-11T19:32:38.817Z,12.33
2023-09-11T19:36:03.839Z,12.55
2023-09-11T19:39:27.856Z,12.88
2023-09-11T19:42:51.836Z,12.89
2023-09-11T19:46:15.852Z,13.00
2023-09-11T19:49:40.818Z,13.24
2023-09-11T19:53:08.136Z,13.54
2023-09-11T19:56:32.876Z,13.92
2023-09-11T19:59:58.843Z,14.14
2023-09-11T20:03:26.054Z,14.32
2023-09-11T20:06:50.835Z,14.92
2023-09-11T20:10:14.813Z,14.69
2023-09-11T20:13:39.992Z,15.33
2023-09-11T20:17:04.832Z,15.46
2023-09-11T20:20:29.828Z,15.66
2023-09-11T20:23:53.899Z,15.47
2023-09-11T20:27:18.886Z,15.79
2023-09-11T20:30:42.823Z,16.49
2023-09-11T20:34:07.846Z,16.44
2023-09-11T20:37:32.920Z,16.04
2023-09-11T20:40:56.834Z,16.23
2023-09-11T20:44:21.820Z,17.09
2023-09-11T20:47:45.913Z,17.50
2023-09-11T20:51:09.888Z,17.65
2023-09-11T20:54:34.905Z,17.50
2023-09-11T20:57:58.821Z,17.97
2023-09-11T21:01:23.937Z,17.86
2023-09-11T21:04:47.859Z,18.48
2023-09-11T21:08:13.866Z,17.90
2023-09-11T21:11:37.843Z,17.24
2023-09-11T21:15:01.919Z,17.77
2023-09-11T21:18:26.959Z,16.30
2023-09-11T21:21:51.843Z,16.50
2023-09-11T21:25:15.857Z,16.99
2023-09-11T21:28:41.174Z,17.10
2023-09-11T21:32:06.926Z,17.52
2023-09-11T21:35:31.851Z,17.22
2023-09-11T21:38:55.866Z,17.76
2023-09-11T21:42:19.911Z,17.23
2023-09-11T21:45:43.873Z,16.61
2023-09-11T21:49:07.837Z,16.47
2023-09-11T21:52:31.860Z,16.39
2023-09-11T21:55:55.876Z,16.33
2023-09-11T21:59:19.891Z,15.67
2023-09-11T22:02:44.895Z,15.02
2023-09-11T22:06:10.098Z,14.68
2023-09-11T22:09:28.590Z,14.80
2023-09-11T22:12:47.887Z,15.89
2023-09-11T22:16:13.119Z,16.40
2023-09-11T22:19:37.865Z,17.36
2023-09-11T22:23:01.897Z,17.76
2023-09-11T22:26:25.868Z,17.84
2023-09-11T22:29:49.896Z,18.02
2023-09-11T22:33:13.966Z,18.15
2023-09-11T22:36:37.918Z,17.12
2023-09-11T22:40:02.897Z,17.18
2023-09-11T22:43:20.906Z,17.65
2023-09-11T22:46:44.929Z,18.10
2023-09-11T22:50:09.912Z,18.57
2023-09-11T22:53:33.869Z,18.74
2023-09-11T22:56:58.039Z,18.79
2023-09-11T23:00:21.909Z,16.84
2023-09-11T23:03:57.460Z,16.19
2023-09-11T23:07:22.877Z,16.39
2023-09-11T23:10:47.953Z,17.48
2023-09-11T23:14:11.889Z,18.08
2023-09-11T23:17:36.981Z,18.46
2023-09-11T23:21:00.926Z,18.86
2023-09-11T23:24:28.972Z,18.66
2023-09-11T23:27:53.907Z,19.00
2023-09-11T23:31:18.053Z,19.62
2023-09-11T23:34:42.892Z,19.56
2023-09-11T23:38:06.935Z,19.65
2023-09-11T23:41:31.921Z,19.59
2023-09-11T23:44:56.927Z,19.81
2023-09-11T23:48:20.910Z,20.14
2023-09-11T23:51:46.000Z,19.33
2023-09-11T23:55:10.901Z,19.68
2023-09-11T23:58:35.949Z,19.73
